createdAt,value
2022-09-23T00:02:10.744Z,2.35
2022-09-23T00:07:13.252Z,4.20
2022-09-23T00:12:15.436Z,2.42
2022-09-23T00:17:17.553Z,3.83
2022-09-23T00:22:19.582Z,5.00
2022-09-23T00:27:22.038Z,2.15
2022-09-23T00:32:24.784Z,2.28
2022-09-23T00:37:28.285Z,1.20
2022-09-23T00:42:30.343Z,2.85
2022-09-23T00:47:48.130Z,1.70
2022-09-23T00:57:54.643Z,4.10
2022-09-23T01:02:56.694Z,2.20
2022-09-23T01:07:59.434Z,3.45
2022-09-23T01:13:11.745Z,1.95
2022-09-23T01:18:19.178Z,3.03
2022-09-23T01:23:41.790Z,1.83
2022-09-23T01:28:43.959Z,4.90
2022-09-23T01:33:53.312Z,3.47
2022-09-23T01:39:01.670Z,4.30
2022-09-23T01:44:09.445Z,6.35
2022-09-23T01:49:11.523Z,4.93
2022-09-23T01:54:23.075Z,4.45
2022-09-23T01:59:29.727Z,1.33
2022-09-23T02:04:34.973Z,1.63
2022-09-23T02:09:40.552Z,2.53
2022-09-23T02:14:49.989Z,3.70
2022-09-23T02:19:54.941Z,5.13
2022-09-23T02:24:58.217Z,2.38
2022-09-23T02:30:14.618Z,1.73
2022-09-23T02:35:32.967Z,4.20
2022-09-23T02:40:55.407Z,5.82
2022-09-23T02:45:57.640Z,1.20
2022-09-23T02:51:02.242Z,2.22
2022-09-23T02:56:14.822Z,1.27
2022-09-23T03:01:17.904Z,1.95
2022-09-23T03:06:20.061Z,5.35
2022-09-23T03:11:22.469Z,3.33
2022-09-23T03:16:30.702Z,2.90
2022-09-23T03:21:34.721Z,1.60
2022-09-23T03:26:38.528Z,1.85
2022-09-23T03:31:42.327Z,1.58
2022-09-23T03:36:51.493Z,5.47
2022-09-23T03:41:55.943Z,2.72
2022-09-23T03:47:03.683Z,1.60
2022-09-23T03:52:06.217Z,3.70
2022-09-23T03:57:08.449Z,1.40
2022-09-23T04:02:11.801Z,4.13
2022-09-23T04:07:14.262Z,2.05
2022-09-23T04:12:17.070Z,3.83
2022-09-23T04:17:19.226Z,2.17
2022-09-23T04:22:22.143Z,1.85
2022-09-23T04:27:24.339Z,2.60
2022-09-23T04:32:26.444Z,1.92
2022-09-23T04:37:29.360Z,5.32
2022-09-23T04:42:31.516Z,2.75
2022-09-23T04:47:33.861Z,2.65
2022-09-23T04:52:36.117Z,1.63
2022-09-23T04:57:38.212Z,2.42
2022-09-23T05:02:44.321Z,8.30
2022-09-23T05:07:46.494Z,3.00
2022-09-23T05:12:52.459Z,4.55
2022-09-23T05:17:59.878Z,2.53
2022-09-23T05:23:01.961Z,2.28
2022-09-23T05:28:05.077Z,2.05
2022-09-23T05:33:07.178Z,2.13
2022-09-23T05:38:09.668Z,6.70
2022-09-23T05:43:11.840Z,1.90
2022-09-23T05:48:13.938Z,2.30
2022-09-23T05:53:16.024Z,3.00
2022-09-23T05:58:18.111Z,1.92
2022-09-23T06:03:20.889Z,4.20
2022-09-23T06:08:23.923Z,2.85
2022-09-23T06:13:27.042Z,4.43
2022-09-23T06:18:29.081Z,1.90
2022-09-23T06:23:31.282Z,3.47
2022-09-23T06:28:34.078Z,3.22
2022-09-23T06:33:37.221Z,1.85
2022-09-23T06:38:40.568Z,4.30
2022-09-23T06:43:42.608Z,3.70
2022-09-23T06:48:46.307Z,2.58
2022-09-23T06:53:49.287Z,3.08
2022-09-23T06:58:52.424Z,3.40
2022-09-23T07:03:54.681Z,3.40
2022-09-23T07:08:56.702Z,5.18
2022-09-23T07:13:58.743Z,1.63
2022-09-23T07:19:00.810Z,7.03
2022-09-23T07:24:03.749Z,4.32
2022-09-23T07:29:06.521Z,3.30
2022-09-23T07:34:11.263Z,2.75
2022-09-23T07:39:13.576Z,2.95
2022-09-23T07:44:16.207Z,3.20
2022-09-23T07:49:18.321Z,2.78
2022-09-23T07:54:20.841Z,2.88
2022-09-23T07:59:23.452Z,2.90
2022-09-23T08:04:28.153Z,3.10
2022-09-23T08:09:32.340Z,1.23
2022-09-23T08:14:34.387Z,4.45
2022-09-23T08:19:36.453Z,2.25
2022-09-23T08:24:38.637Z,3.30
2022-09-23T08:29:40.803Z,2.13
2022-09-23T08:34:42.844Z,2.08
2022-09-23T08:39:44.863Z,2.67
2022-09-23T08:44:51.412Z,2.03
2022-09-23T08:50:03.804Z,2.03
2022-09-23T08:55:06.702Z,2.30
2022-09-23T09:00:15.201Z,3.00
2022-09-23T09:05:21.133Z,2.00
2022-09-23T09:10:24.498Z,1.73
2022-09-23T09:15:27.350Z,3.45
2022-09-23T09:20:39.283Z,3.25
2022-09-23T09:25:51.737Z,2.33
2022-09-23T09:30:58.262Z,2.45
2022-09-23T09:36:08.938Z,5.07
2022-09-23T09:41:15.271Z,5.38
2022-09-23T09:46:45.063Z,3.10
2022-09-23T09:51:47.530Z,4.57
2022-09-23T09:56:50.149Z,2.63
2022-09-23T10:02:12.158Z,2.05
2022-09-23T10:07:15.498Z,4.03
2022-09-23T10:12:18.833Z,2.47
2022-09-23T10:17:39.588Z,5.70
2022-09-23T10:22:42.781Z,1.92
2022-09-23T10:27:45.548Z,3.60
2022-09-23T10:32:47.659Z,1.60
2022-09-23T10:37:56.304Z,1.83
2022-09-23T10:43:35.035Z,3.97
2022-09-23T10:48:56.096Z,1.45
2022-09-23T10:54:06.199Z,2.40
2022-09-23T10:59:14.181Z,4.72
2022-09-23T11:04:28.680Z,5.88
2022-09-23T11:09:40.085Z,1.40
2022-09-23T11:14:51.808Z,2.92
2022-09-23T11:20:21.871Z,2.67
2022-09-23T11:25:42.695Z,2.00
2022-09-23T11:30:57.593Z,1.20
2022-09-23T11:36:02.386Z,1.23
2022-09-23T11:41:17.493Z,2.35
2022-09-23T11:46:32.597Z,1.20
2022-09-23T11:51:39.283Z,7.07
2022-09-23T11:56:49.316Z,0.85
2022-09-23T12:02:16.892Z,1.48
2022-09-23T12:07:23.235Z,2.97
2022-09-23T12:12:27.212Z,1.45
2022-09-23T12:17:47.852Z,1.02
2022-09-23T12:22:58.017Z,2.45
2022-09-23T12:28:10.948Z,1.77
2022-09-23T12:33:21.447Z,0.65
2022-09-23T12:38:25.857Z,3.33
2022-09-23T12:43:35.513Z,1.10
2022-09-23T12:48:44.858Z,1.40
2022-09-23T12:53:50.749Z,0.35
2022-09-23T12:58:58.926Z,1.37
2022-09-23T13:04:19.687Z,1.42
2022-09-23T13:09:27.373Z,0.95
2022-09-23T13:14:30.292Z,4.20
2022-09-23T13:19:36.662Z,3.38
2022-09-23T13:24:44.527Z,1.35
2022-09-23T13:29:49.617Z,2.42
2022-09-23T13:34:57.897Z,2.55
2022-09-23T13:40:10.867Z,2.25
2022-09-23T13:45:15.364Z,2.55
2022-09-23T13:50:22.002Z,1.00
2022-09-23T14:00:27.598Z,1.48
2022-09-23T14:05:33.574Z,0.85
2022-09-23T14:10:35.653Z,1.13
2022-09-23T14:15:37.715Z,6.50
2022-09-23T14:20:46.910Z,1.48
2022-09-23T14:25:49.148Z,0.90
2022-09-23T14:30:52.219Z,5.28
2022-09-23T14:35:56.338Z,0.98
2022-09-23T14:41:18.083Z,2.22
2022-09-23T14:46:21.157Z,0.82
2022-09-23T14:51:29.353Z,2.60
2022-09-23T14:56:41.597Z,3.92
2022-09-23T15:01:43.633Z,1.95
2022-09-23T15:06:48.087Z,1.98
2022-09-23T15:12:06.023Z,0.93
2022-09-23T15:17:37.482Z,2.40
2022-09-23T15:22:48.584Z,1.52
2022-09-23T15:28:17.222Z,3.08
2022-09-23T15:33:20.172Z,3.25
2022-09-23T15:38:22.453Z,0.98
2022-09-23T15:43:26.836Z,1.65
2022-09-23T15:48:32.635Z,0.85
2022-09-23T15:53:34.910Z,2.30
2022-09-23T15:58:36.991Z,3.22
2022-09-23T16:03:39.115Z,2.55
2022-09-23T16:08:42.185Z,6.45
2022-09-23T16:13:44.334Z,9.05
2022-09-23T16:18:47.854Z,5.68
2022-09-23T16:23:51.316Z,6.78
2022-09-23T16:28:55.262Z,1.67
2022-09-23T16:33:57.744Z,2.03
2022-09-23T16:39:00.697Z,1.13
2022-09-23T16:44:04.676Z,1.48
2022-09-23T16:49:06.869Z,0.90
2022-09-23T16:54:11.096Z,2.88
2022-09-23T16:59:16.358Z,8.32
2022-09-23T17:04:19.504Z,2.70
2022-09-23T17:09:22.716Z,2.53
2022-09-23T17:14:25.149Z,3.10
2022-09-23T17:19:27.275Z,5.10
2022-09-23T17:24:29.316Z,3.92
2022-09-23T17:29:31.443Z,2.05
2022-09-23T17:34:34.854Z,2.85
2022-09-23T17:39:37.406Z,1.25
2022-09-23T17:44:39.431Z,2.45
2022-09-23T17:49:42.835Z,2.30
2022-09-23T17:54:45.343Z,2.53
2022-09-23T17:59:50.610Z,2.40
2022-09-23T18:04:54.819Z,5.72
2022-09-23T18:09:56.896Z,4.57
2022-09-23T18:14:59.090Z,10.88
2022-09-23T18:20:01.271Z,4.10
2022-09-23T18:25:17.507Z,8.07
2022-09-23T18:30:25.921Z,10.40
2022-09-23T18:35:28.364Z,19.00
2022-09-23T18:40:30.436Z,18.25
2022-09-23T18:45:32.528Z,10.38
2022-09-23T18:50:41.977Z,12.20
2022-09-23T18:55:44.061Z,10.75
2022-09-23T19:00:47.830Z,9.93
2022-09-23T19:05:49.950Z,8.85
2022-09-23T19:10:55.848Z,7.47
2022-09-23T19:16:09.735Z,6.53
2022-09-23T19:21:12.656Z,4.32
2022-09-23T19:26:16.315Z,6.13
2022-09-23T19:31:22.190Z,6.65
2022-09-23T19:36:25.536Z,9.93
2022-09-23T19:41:28.897Z,3.97
2022-09-23T19:46:33.202Z,5.47
2022-09-23T19:51:35.301Z,9.93
2022-09-23T19:56:38.481Z,8.35
2022-09-23T20:01:40.553Z,9.93
2022-09-23T20:06:42.653Z,9.25
2022-09-23T20:11:44.743Z,6.10
2022-09-23T20:16:46.799Z,11.23
2022-09-23T20:22:09.019Z,6.93
2022-09-23T20:27:11.139Z,10.77
2022-09-23T20:32:13.906Z,10.88
2022-09-23T20:37:20.923Z,6.80
2022-09-23T20:42:22.992Z,15.18
2022-09-23T20:47:25.157Z,11.70
2022-09-23T20:52:27.210Z,9.52
2022-09-23T20:57:31.577Z,11.20
2022-09-23T21:02:33.644Z,13.35
2022-09-23T21:07:35.744Z,13.93
2022-09-23T21:12:37.793Z,13.60
2022-09-23T21:17:39.802Z,12.75
2022-09-23T21:22:41.820Z,14.40
2022-09-23T21:27:44.967Z,12.63
2022-09-23T21:32:47.044Z,10.05
2022-09-23T21:37:49.109Z,11.50
2022-09-23T21:42:51.274Z,10.80
2022-09-23T21:47:53.475Z,9.25
2022-09-23T21:52:55.500Z,5.70
2022-09-23T21:57:57.630Z,7.22
2022-09-23T22:02:59.654Z,7.43
2022-09-23T22:08:01.782Z,6.65
2022-09-23T22:13:05.068Z,6.55
2022-09-23T22:18:09.155Z,6.85
2022-09-23T22:23:12.089Z,9.48
2022-09-23T22:28:33.107Z,7.90
2022-09-23T22:33:35.144Z,6.80
2022-09-23T22:38:37.164Z,4.20
2022-09-23T22:43:39.189Z,4.40
2022-09-23T22:48:41.215Z,5.45
2022-09-23T22:53:43.229Z,8.63
2022-09-23T22:58:45.252Z,3.33
2022-09-23T23:03:47.434Z,3.33
2022-09-23T23:08:49.495Z,5.47
2022-09-23T23:13:51.515Z,3.38
2022-09-23T23:18:53.820Z,4.18
2022-09-23T23:23:55.830Z,5.03
2022-09-23T23:28:58.194Z,6.18
2022-09-23T23:34:00.308Z,2.67
2022-09-23T23:39:02.359Z,11.32
2022-09-23T23:44:05.423Z,2.58
2022-09-23T23:49:07.459Z,5.50
2022-09-23T23:54:09.541Z,2.20
2022-09-23T23:59:11.616Z,3.78
